sensor_id;sensor_type;location;lat;lon;timestamp;P1;durP1;ratioP1;P2;durP2;ratioP2
21901;SDS011;11115;46.038;14.612;2023-03-18T00:01:02;2.07;;;0.90;;
21901;SDS011;11115;46.038;14.612;2023-03-18T00:03:36;8.60;;;1.63;;
21901;SDS011;11115;46.038;14.612;2023-03-18T00:06:17;4.23;;;1.33;;
21901;SDS011;11115;46.038;14.612;2023-03-18T00:08:49;1.90;;;0.97;;
21901;SDS011;11115;46.038;14.612;2023-03-18T00:11:23;4.60;;;1.87;;
21901;SDS011;11115;46.038;14.612;2023-03-18T00:13:55;0.88;;;0.85;;
21901;SDS011;11115;46.038;14.612;2023-03-18T00:16:31;2.73;;;1.00;;
21901;SDS011;11115;46.038;14.612;2023-03-18T00:21:33;2.00;;;0.97;;
21901;SDS011;11115;46.038;14.612;2023-03-18T00:24:19;3.37;;;1.30;;
21901;SDS011;11115;46.038;14.612;2023-03-18T00:26:53;7.65;;;0.95;;
21901;SDS011;11115;46.038;14.612;2023-03-18T00:29:37;5.47;;;1.47;;
21901;SDS011;11115;46.038;14.612;2023-03-18T00:32:09;2.43;;;1.43;;
21901;SDS011;11115;46.038;14.612;2023-03-18T00:37:09;3.53;;;1.40;;
21901;SDS011;11115;46.038;14.612;2023-03-18T00:39:44;1.73;;;1.13;;
21901;SDS011;11115;46.038;14.612;2023-03-18T00:42:19;1.43;;;1.33;;
21901;SDS011;11115;46.038;14.612;2023-03-18T00:45:04;3.33;;;1.30;;
21901;SDS011;11115;46.038;14.612;2023-03-18T00:47:36;1.37;;;1.00;;
21901;SDS011;11115;46.038;14.612;2023-03-18T00:50:09;6.37;;;1.40;;
21901;SDS011;11115;46.038;14.612;2023-03-18T00:52:38;1.23;;;1.13;;
21901;SDS011;11115;46.038;14.612;2023-03-18T00:55:09;2.00;;;1.40;;
21901;SDS011;11115;46.038;14.612;2023-03-18T00:57:37;1.60;;;1.30;;
21901;SDS011;11115;46.038;14.612;2023-03-18T01:00:08;0.88;;;0.85;;
21901;SDS011;11115;46.038;14.612;2023-03-18T01:02:37;6.73;;;1.90;;
21901;SDS011;11115;46.038;14.612;2023-03-18T01:05:05;2.17;;;0.73;;
21901;SDS011;11115;46.038;14.612;2023-03-18T01:07:42;1.90;;;0.77;;
21901;SDS011;11115;46.038;14.612;2023-03-18T01:10:14;0.73;;;0.73;;
21901;SDS011;11115;46.038;14.612;2023-03-18T01:12:56;1.70;;;1.07;;
21901;SDS011;11115;46.038;14.612;2023-03-18T01:15:46;3.30;;;1.30;;
21901;SDS011;11115;46.038;14.612;2023-03-18T01:18:22;2.10;;;0.93;;
21901;SDS011;11115;46.038;14.612;2023-03-18T01:20:53;0.60;;;0.60;;
21901;SDS011;11115;46.038;14.612;2023-03-18T01:23:32;3.30;;;1.17;;
21901;SDS011;11115;46.038;14.612;2023-03-18T01:26:03;4.03;;;0.90;;
21901;SDS011;11115;46.038;14.612;2023-03-18T01:28:36;1.80;;;1.20;;
21901;SDS011;11115;46.038;14.612;2023-03-18T01:31:08;1.57;;;1.20;;
21901;SDS011;11115;46.038;14.612;2023-03-18T01:33:40;1.60;;;1.17;;
21901;SDS011;11115;46.038;14.612;2023-03-18T01:36:16;2.00;;;1.23;;
21901;SDS011;11115;46.038;14.612;2023-03-18T01:39:03;3.30;;;1.67;;
21901;SDS011;11115;46.038;14.612;2023-03-18T01:41:42;2.17;;;0.90;;
21901;SDS011;11115;46.038;14.612;2023-03-18T01:44:26;1.13;;;1.10;;
21901;SDS011;11115;46.038;14.612;2023-03-18T01:46:57;4.00;;;0.95;;
21901;SDS011;11115;46.038;14.612;2023-03-18T01:49:41;5.57;;;1.37;;
21901;SDS011;11115;46.038;14.612;2023-03-18T01:52:20;0.63;;;0.60;;
21901;SDS011;11115;46.038;14.612;2023-03-18T01:55:03;2.83;;;1.40;;
21901;SDS011;11115;46.038;14.612;2023-03-18T01:57:36;3.13;;;1.37;;
21901;SDS011;11115;46.038;14.612;2023-03-18T02:00:21;0.93;;;0.87;;
21901;SDS011;11115;46.038;14.612;2023-03-18T02:02:54;2.50;;;1.07;;
21901;SDS011;11115;46.038;14.612;2023-03-18T02:05:31;1.60;;;0.73;;
21901;SDS011;11115;46.038;14.612;2023-03-18T02:08:08;3.53;;;1.63;;
21901;SDS011;11115;46.038;14.612;2023-03-18T02:10:48;0.35;;;0.35;;
21901;SDS011;11115;46.038;14.612;2023-03-18T02:13:20;1.83;;;0.97;;
21901;SDS011;11115;46.038;14.612;2023-03-18T02:16:04;3.30;;;2.33;;
21901;SDS011;11115;46.038;14.612;2023-03-18T02:18:44;2.60;;;1.33;;
21901;SDS011;11115;46.038;14.612;2023-03-18T02:27:27;5.65;;;1.95;;
21901;SDS011;11115;46.038;14.612;2023-03-18T02:30:10;3.80;;;0.97;;
21901;SDS011;11115;46.038;14.612;2023-03-18T02:33:16;3.40;;;1.20;;
21901;SDS011;11115;46.038;14.612;2023-03-18T02:35:53;10.13;;;1.67;;
21901;SDS011;11115;46.038;14.612;2023-03-18T02:38:40;7.90;;;2.70;;
21901;SDS011;11115;46.038;14.612;2023-03-18T02:41:27;5.97;;;1.30;;
21901;SDS011;11115;46.038;14.612;2023-03-18T02:44:01;4.30;;;1.83;;
21901;SDS011;11115;46.038;14.612;2023-03-18T02:47:11;6.77;;;1.30;;
21901;SDS011;11115;46.038;14.612;2023-03-18T02:49:45;8.73;;;2.10;;
21901;SDS011;11115;46.038;14.612;2023-03-18T02:52:15;3.37;;;1.57;;
21901;SDS011;11115;46.038;14.612;2023-03-18T02:54:43;5.43;;;1.70;;
21901;SDS011;11115;46.038;14.612;2023-03-18T02:57:17;3.87;;;2.20;;
21901;SDS011;11115;46.038;14.612;2023-03-18T02:59:47;7.17;;;1.33;;
21901;SDS011;11115;46.038;14.612;2023-03-18T03:02:24;4.07;;;1.43;;
21901;SDS011;11115;46.038;14.612;2023-03-18T03:05:02;6.60;;;2.50;;
21901;SDS011;11115;46.038;14.612;2023-03-18T03:07:37;9.17;;;2.20;;
21901;SDS011;11115;46.038;14.612;2023-03-18T03:10:12;4.13;;;2.00;;
21901;SDS011;11115;46.038;14.612;2023-03-18T03:12:51;2.17;;;0.90;;
21901;SDS011;11115;46.038;14.612;2023-03-18T03:17:56;13.73;;;2.90;;
21901;SDS011;11115;46.038;14.612;2023-03-18T03:20:29;1.77;;;1.50;;
21901;SDS011;11115;46.038;14.612;2023-03-18T03:25:38;3.00;;;1.60;;
21901;SDS011;11115;46.038;14.612;2023-03-18T03:28:12;3.67;;;2.20;;
21901;SDS011;11115;46.038;14.612;2023-03-18T03:30:43;1.57;;;1.40;;
21901;SDS011;11115;46.038;14.612;2023-03-18T03:33:16;10.80;;;2.40;;
21901;SDS011;11115;46.038;14.612;2023-03-18T03:35:48;3.87;;;2.03;;
21901;SDS011;11115;46.038;14.612;2023-03-18T03:38:27;5.83;;;2.07;;
21901;SDS011;11115;46.038;14.612;2023-03-18T03:41:01;2.63;;;1.70;;
21901;SDS011;11115;46.038;14.612;2023-03-18T03:43:37;1.80;;;1.20;;
21901;SDS011;11115;46.038;14.612;2023-03-18T03:46:11;1.80;;;0.93;;
21901;SDS011;11115;46.038;14.612;2023-03-18T03:48:47;5.73;;;1.37;;
21901;SDS011;11115;46.038;14.612;2023-03-18T03:51:26;2.40;;;1.93;;
21901;SDS011;11115;46.038;14.612;2023-03-18T03:53:57;6.13;;;1.80;;
21901;SDS011;11115;46.038;14.612;2023-03-18T03:56:30;6.93;;;1.30;;
21901;SDS011;11115;46.038;14.612;2023-03-18T03:59:06;3.90;;;1.63;;
21901;SDS011;11115;46.038;14.612;2023-03-18T04:01:56;2.97;;;1.70;;
21901;SDS011;11115;46.038;14.612;2023-03-18T04:04:27;0.98;;;0.98;;
21901;SDS011;11115;46.038;14.612;2023-03-18T04:07:03;3.40;;;1.60;;
21901;SDS011;11115;46.038;14.612;2023-03-18T04:09:37;1.60;;;1.43;;
21901;SDS011;11115;46.038;14.612;2023-03-18T04:12:20;5.88;;;1.45;;
21901;SDS011;11115;46.038;14.612;2023-03-18T04:14:57;2.77;;;2.03;;
21901;SDS011;11115;46.038;14.612;2023-03-18T04:17:31;4.33;;;1.47;;
21901;SDS011;11115;46.038;14.612;2023-03-18T04:20:01;1.90;;;1.42;;
21901;SDS011;11115;46.038;14.612;2023-03-18T04:22:33;1.60;;;1.50;;
21901;SDS011;11115;46.038;14.612;2023-03-18T04:25:06;1.47;;;1.17;;
21901;SDS011;11115;46.038;14.612;2023-03-18T04:27:39;17.80;;;3.73;;
21901;SDS011;11115;46.038;14.612;2023-03-18T04:30:20;6.90;;;3.27;;
21901;SDS011;11115;46.038;14.612;2023-03-18T04:33:09;6.87;;;2.07;;
21901;SDS011;11115;46.038;14.612;2023-03-18T04:35:42;15.40;;;3.47;;
21901;SDS011;11115;46.038;14.612;2023-03-18T04:38:13;1.65;;;1.42;;
21901;SDS011;11115;46.038;14.612;2023-03-18T04:40:46;11.83;;;2.17;;
21901;SDS011;11115;46.038;14.612;2023-03-18T04:43:27;8.47;;;2.50;;
21901;SDS011;11115;46.038;14.612;2023-03-18T04:46:04;8.70;;;3.13;;
21901;SDS011;11115;46.038;14.612;2023-03-18T04:48:35;3.53;;;2.43;;
21901;SDS011;11115;46.038;14.612;2023-03-18T04:51:07;11.67;;;2.37;;
21901;SDS011;11115;46.038;14.612;2023-03-18T04:53:40;2.67;;;1.87;;
21901;SDS011;11115;46.038;14.612;2023-03-18T04:56:12;4.07;;;2.08;;
21901;SDS011;11115;46.038;14.612;2023-03-18T04:58:52;9.73;;;3.03;;
21901;SDS011;11115;46.038;14.612;2023-03-18T05:01:27;3.13;;;2.43;;
21901;SDS011;11115;46.038;14.612;2023-03-18T05:03:58;1.17;;;1.15;;
21901;SDS011;11115;46.038;14.612;2023-03-18T05:06:51;4.53;;;1.30;;
21901;SDS011;11115;46.038;14.612;2023-03-18T05:12:12;2.83;;;1.20;;
21901;SDS011;11115;46.038;14.612;2023-03-18T05:14:53;2.67;;;2.08;;
21901;SDS011;11115;46.038;14.612;2023-03-18T05:17:30;5.53;;;2.10;;
21901;SDS011;11115;46.038;14.612;2023-03-18T05:20:03;1.93;;;1.80;;
21901;SDS011;11115;46.038;14.612;2023-03-18T05:22:35;2.37;;;1.63;;
21901;SDS011;11115;46.038;14.612;2023-03-18T05:25:16;2.33;;;1.42;;
21901;SDS011;11115;46.038;14.612;2023-03-18T05:27:52;7.47;;;2.50;;
21901;SDS011;11115;46.038;14.612;2023-03-18T05:30:46;2.37;;;1.60;;
21901;SDS011;11115;46.038;14.612;2023-03-18T05:33:18;9.30;;;2.92;;
21901;SDS011;11115;46.038;14.612;2023-03-18T05:35:55;4.27;;;1.63;;
21901;SDS011;11115;46.038;14.612;2023-03-18T05:38:44;5.83;;;1.67;;
21901;SDS011;11115;46.038;14.612;2023-03-18T05:41:23;2.97;;;1.13;;
21901;SDS011;11115;46.038;14.612;2023-03-18T05:43:57;3.60;;;1.97;;
21901;SDS011;11115;46.038;14.612;2023-03-18T05:46:41;2.77;;;1.90;;
21901;SDS011;11115;46.038;14.612;2023-03-18T05:49:36;9.97;;;2.53;;
21901;SDS011;11115;46.038;14.612;2023-03-18T05:52:28;3.88;;;1.75;;
21901;SDS011;11115;46.038;14.612;2023-03-18T05:55:02;8.00;;;1.50;;
21901;SDS011;11115;46.038;14.612;2023-03-18T05:57:46;4.77;;;1.37;;
21901;SDS011;11115;46.038;14.612;2023-03-18T06:00:22;4.67;;;2.40;;
21901;SDS011;11115;46.038;14.612;2023-03-18T06:03:04;3.22;;;1.67;;
21901;SDS011;11115;46.038;14.612;2023-03-18T06:05:47;6.50;;;1.40;;
21901;SDS011;11115;46.038;14.612;2023-03-18T06:08:20;7.50;;;2.87;;
21901;SDS011;11115;46.038;14.612;2023-03-18T06:10:51;4.73;;;2.47;;
21901;SDS011;11115;46.038;14.612;2023-03-18T06:13:23;11.50;;;3.47;;
21901;SDS011;11115;46.038;14.612;2023-03-18T06:16:01;4.03;;;1.80;;
21901;SDS011;11115;46.038;14.612;2023-03-18T06:18:35;2.43;;;1.10;;
21901;SDS011;11115;46.038;14.612;2023-03-18T06:21:18;3.23;;;1.73;;
21901;SDS011;11115;46.038;14.612;2023-03-18T06:23:52;4.20;;;1.70;;
21901;SDS011;11115;46.038;14.612;2023-03-18T06:26:22;8.20;;;3.27;;
21901;SDS011;11115;46.038;14.612;2023-03-18T06:28:55;4.82;;;1.90;;
21901;SDS011;11115;46.038;14.612;2023-03-18T06:31:33;3.27;;;2.13;;
21901;SDS011;11115;46.038;14.612;2023-03-18T06:34:08;5.63;;;1.33;;
21901;SDS011;11115;46.038;14.612;2023-03-18T06:36:39;2.53;;;1.55;;
21901;SDS011;11115;46.038;14.612;2023-03-18T06:42:01;7.47;;;2.83;;
21901;SDS011;11115;46.038;14.612;2023-03-18T06:44:49;3.70;;;1.70;;
21901;SDS011;11115;46.038;14.612;2023-03-18T06:47:39;14.38;;;2.25;;
21901;SDS011;11115;46.038;14.612;2023-03-18T06:50:09;8.67;;;3.00;;
21901;SDS011;11115;46.038;14.612;2023-03-18T06:52:39;7.90;;;2.27;;
21901;SDS011;11115;46.038;14.612;2023-03-18T06:55:25;2.40;;;1.10;;
21901;SDS011;11115;46.038;14.612;2023-03-18T06:58:11;4.70;;;2.70;;
21901;SDS011;11115;46.038;14.612;2023-03-18T07:00:58;6.20;;;2.67;;
21901;SDS011;11115;46.038;14.612;2023-03-18T07:03:43;2.53;;;1.60;;
21901;SDS011;11115;46.038;14.612;2023-03-18T07:06:12;7.00;;;1.97;;
21901;SDS011;11115;46.038;14.612;2023-03-18T07:08:42;4.07;;;2.10;;
21901;SDS011;11115;46.038;14.612;2023-03-18T07:11:12;5.67;;;2.50;;
21901;SDS011;11115;46.038;14.612;2023-03-18T07:14:00;5.67;;;2.37;;
21901;SDS011;11115;46.038;14.612;2023-03-18T07:16:34;4.17;;;1.97;;
21901;SDS011;11115;46.038;14.612;2023-03-18T07:19:03;3.27;;;2.40;;
21901;SDS011;11115;46.038;14.612;2023-03-18T07:21:32;7.33;;;2.27;;
21901;SDS011;11115;46.038;14.612;2023-03-18T07:24:02;8.50;;;3.03;;
21901;SDS011;11115;46.038;14.612;2023-03-18T07:26:34;3.80;;;1.83;;
21901;SDS011;11115;46.038;14.612;2023-03-18T07:29:03;9.03;;;2.67;;
21901;SDS011;11115;46.038;14.612;2023-03-18T07:31:32;3.33;;;1.93;;
21901;SDS011;11115;46.038;14.612;2023-03-18T07:34:03;9.47;;;3.60;;
21901;SDS011;11115;46.038;14.612;2023-03-18T07:36:38;2.97;;;1.27;;
21901;SDS011;11115;46.038;14.612;2023-03-18T07:39:11;8.40;;;3.27;;
21901;SDS011;11115;46.038;14.612;2023-03-18T07:41:53;7.32;;;1.95;;
21901;SDS011;11115;46.038;14.612;2023-03-18T07:44:29;3.13;;;1.97;;
21901;SDS011;11115;46.038;14.612;2023-03-18T07:47:09;12.40;;;2.80;;
21901;SDS011;11115;46.038;14.612;2023-03-18T07:49:41;5.70;;;1.60;;
21901;SDS011;11115;46.038;14.612;2023-03-18T07:52:15;3.97;;;2.20;;
21901;SDS011;11115;46.038;14.612;2023-03-18T07:54:48;5.03;;;2.60;;
21901;SDS011;11115;46.038;14.612;2023-03-18T07:57:18;3.83;;;2.53;;
21901;SDS011;11115;46.038;14.612;2023-03-18T08:00:04;3.50;;;2.07;;
21901;SDS011;11115;46.038;14.612;2023-03-18T08:02:40;13.17;;;2.60;;
21901;SDS011;11115;46.038;14.612;2023-03-18T08:05:10;7.80;;;2.57;;
21901;SDS011;11115;46.038;14.612;2023-03-18T08:07:41;2.77;;;1.30;;
21901;SDS011;11115;46.038;14.612;2023-03-18T08:10:10;3.60;;;2.42;;
21901;SDS011;11115;46.038;14.612;2023-03-18T08:12:40;5.17;;;2.30;;
21901;SDS011;11115;46.038;14.612;2023-03-18T08:15:21;6.83;;;3.17;;
21901;SDS011;11115;46.038;14.612;2023-03-18T08:17:51;3.37;;;2.00;;
21901;SDS011;11115;46.038;14.612;2023-03-18T08:20:24;5.13;;;2.17;;
21901;SDS011;11115;46.038;14.612;2023-03-18T08:22:54;3.60;;;1.87;;
21901;SDS011;11115;46.038;14.612;2023-03-18T08:25:26;4.43;;;2.28;;
21901;SDS011;11115;46.038;14.612;2023-03-18T08:27:57;10.38;;;3.00;;
21901;SDS011;11115;46.038;14.612;2023-03-18T08:30:34;4.77;;;2.37;;
21901;SDS011;11115;46.038;14.612;2023-03-18T08:33:07;8.57;;;2.70;;
21901;SDS011;11115;46.038;14.612;2023-03-18T08:35:39;8.53;;;3.03;;
21901;SDS011;11115;46.038;14.612;2023-03-18T08:38:13;4.30;;;1.97;;
21901;SDS011;11115;46.038;14.612;2023-03-18T08:40:41;5.10;;;2.97;;
21901;SDS011;11115;46.038;14.612;2023-03-18T08:43:16;4.77;;;2.40;;
21901;SDS011;11115;46.038;14.612;2023-03-18T08:45:53;15.87;;;3.13;;
21901;SDS011;11115;46.038;14.612;2023-03-18T08:48:30;8.43;;;2.57;;
21901;SDS011;11115;46.038;14.612;2023-03-18T08:51:02;7.83;;;3.10;;
21901;SDS011;11115;46.038;14.612;2023-03-18T08:53:50;9.37;;;4.93;;
21901;SDS011;11115;46.038;14.612;2023-03-18T08:56:21;10.27;;;4.63;;
21901;SDS011;11115;46.038;14.612;2023-03-18T08:58:53;10.73;;;4.07;;
21901;SDS011;11115;46.038;14.612;2023-03-18T09:01:25;7.53;;;3.60;;
21901;SDS011;11115;46.038;14.612;2023-03-18T09:04:00;6.77;;;3.40;;
21901;SDS011;11115;46.038;14.612;2023-03-18T09:06:33;7.90;;;3.23;;
21901;SDS011;11115;46.038;14.612;2023-03-18T09:09:03;8.83;;;3.47;;
21901;SDS011;11115;46.038;14.612;2023-03-18T09:11:37;13.00;;;3.57;;
21901;SDS011;11115;46.038;14.612;2023-03-18T09:14:07;11.53;;;2.77;;
21901;SDS011;11115;46.038;14.612;2023-03-18T09:19:05;15.20;;;2.90;;
21901;SDS011;11115;46.038;14.612;2023-03-18T09:21:34;7.60;;;2.43;;
21901;SDS011;11115;46.038;14.612;2023-03-18T09:24:16;7.97;;;2.47;;
21901;SDS011;11115;46.038;14.612;2023-03-18T09:26:55;7.50;;;3.10;;
21901;SDS011;11115;46.038;14.612;2023-03-18T09:29:33;4.13;;;2.67;;
21901;SDS011;11115;46.038;14.612;2023-03-18T09:32:10;4.00;;;2.27;;
21901;SDS011;11115;46.038;14.612;2023-03-18T09:34:42;5.33;;;2.17;;
21901;SDS011;11115;46.038;14.612;2023-03-18T09:37:22;8.67;;;3.27;;
21901;SDS011;11115;46.038;14.612;2023-03-18T09:39:58;7.10;;;2.53;;
21901;SDS011;11115;46.038;14.612;2023-03-18T09:42:48;4.87;;;1.63;;
21901;SDS011;11115;46.038;14.612;2023-03-18T09:45:25;7.73;;;2.23;;
21901;SDS011;11115;46.038;14.612;2023-03-18T09:54:36;5.83;;;2.13;;
21901;SDS011;11115;46.038;14.612;2023-03-18T09:57:41;2.97;;;1.53;;
21901;SDS011;11115;46.038;14.612;2023-03-18T10:00:27;3.60;;;2.17;;
21901;SDS011;11115;46.038;14.612;2023-03-18T10:03:16;6.17;;;1.73;;
21901;SDS011;11115;46.038;14.612;2023-03-18T10:06:28;6.60;;;2.60;;
21901;SDS011;11115;46.038;14.612;2023-03-18T10:12:38;7.03;;;2.13;;
21901;SDS011;11115;46.038;14.612;2023-03-18T10:15:30;5.20;;;2.23;;
21901;SDS011;11115;46.038;14.612;2023-03-18T10:27:19;5.27;;;2.20;;
21901;SDS011;11115;46.038;14.612;2023-03-18T10:38:43;6.23;;;2.53;;
21901;SDS011;11115;46.038;14.612;2023-03-18T10:41:34;5.67;;;2.33;;
21901;SDS011;11115;46.038;14.612;2023-03-18T10:44:14;8.00;;;2.47;;
21901;SDS011;11115;46.038;14.612;2023-03-18T10:47:10;8.80;;;3.00;;
21901;SDS011;11115;46.038;14.612;2023-03-18T10:56:36;3.87;;;2.13;;
21901;SDS011;11115;46.038;14.612;2023-03-18T10:59:14;4.47;;;2.30;;
21901;SDS011;11115;46.038;14.612;2023-03-18T11:02:12;11.55;;;2.67;;
21901;SDS011;11115;46.038;14.612;2023-03-18T11:04:55;8.37;;;2.37;;
21901;SDS011;11115;46.038;14.612;2023-03-18T11:07:31;5.63;;;2.37;;
21901;SDS011;11115;46.038;14.612;2023-03-18T11:10:12;8.82;;;2.38;;
21901;SDS011;11115;46.038;14.612;2023-03-18T11:12:46;6.90;;;2.37;;
21901;SDS011;11115;46.038;14.612;2023-03-18T11:15:18;5.93;;;2.47;;
21901;SDS011;11115;46.038;14.612;2023-03-18T11:17:57;4.77;;;2.53;;
21901;SDS011;11115;46.038;14.612;2023-03-18T11:20:34;9.70;;;2.27;;
21901;SDS011;11115;46.038;14.612;2023-03-18T11:23:18;11.93;;;2.90;;
21901;SDS011;11115;46.038;14.612;2023-03-18T11:26:21;7.13;;;2.57;;
21901;SDS011;11115;46.038;14.612;2023-03-18T11:29:10;8.37;;;3.20;;
21901;SDS011;11115;46.038;14.612;2023-03-18T11:31:53;6.97;;;2.10;;
21901;SDS011;11115;46.038;14.612;2023-03-18T11:34:34;17.08;;;2.53;;
21901;SDS011;11115;46.038;14.612;2023-03-18T11:37:05;4.32;;;2.78;;
21901;SDS011;11115;46.038;14.612;2023-03-18T11:39:39;6.77;;;2.63;;
21901;SDS011;11115;46.038;14.612;2023-03-18T11:42:18;5.60;;;2.30;;
21901;SDS011;11115;46.038;14.612;2023-03-18T11:44:55;4.20;;;1.77;;
21901;SDS011;11115;46.038;14.612;2023-03-18T11:47:36;3.47;;;1.93;;
21901;SDS011;11115;46.038;14.612;2023-03-18T11:50:08;25.00;;;2.00;;
21901;SDS011;11115;46.038;14.612;2023-03-18T11:52:45;2.53;;;1.13;;
21901;SDS011;11115;46.038;14.612;2023-03-18T11:55:36;6.17;;;1.50;;
21901;SDS011;11115;46.038;14.612;2023-03-18T12:10:45;7.05;;;1.42;;
21901;SDS011;11115;46.038;14.612;2023-03-18T12:26:11;2.38;;;1.20;;
21901;SDS011;11115;46.038;14.612;2023-03-18T12:35:25;1.27;;;0.95;;
21901;SDS011;11115;46.038;14.612;2023-03-18T12:47:07;3.90;;;1.15;;
21901;SDS011;11115;46.038;14.612;2023-03-18T12:49:55;2.60;;;1.17;;
21901;SDS011;11115;46.038;14.612;2023-03-18T12:53:04;2.40;;;0.95;;
21901;SDS011;11115;46.038;14.612;2023-03-18T12:56:00;3.55;;;1.35;;
21901;SDS011;11115;46.038;14.612;2023-03-18T12:58:36;1.83;;;0.93;;
21901;SDS011;11115;46.038;14.612;2023-03-18T13:01:39;2.60;;;1.48;;
21901;SDS011;11115;46.038;14.612;2023-03-18T13:04:52;3.40;;;1.50;;
21901;SDS011;11115;46.038;14.612;2023-03-18T13:07:37;3.00;;;0.90;;
21901;SDS011;11115;46.038;14.612;2023-03-18T13:10:21;1.73;;;1.00;;
21901;SDS011;11115;46.038;14.612;2023-03-18T13:12:52;1.67;;;0.90;;
21901;SDS011;11115;46.038;14.612;2023-03-18T13:15:41;3.17;;;1.10;;
21901;SDS011;11115;46.038;14.612;2023-03-18T13:18:30;2.10;;;1.25;;
21901;SDS011;11115;46.038;14.612;2023-03-18T13:21:34;5.05;;;1.13;;
21901;SDS011;11115;46.038;14.612;2023-03-18T13:24:24;1.88;;;1.25;;
21901;SDS011;11115;46.038;14.612;2023-03-18T13:27:21;1.88;;;1.08;;
21901;SDS011;11115;46.038;14.612;2023-03-18T13:44:21;6.68;;;1.40;;
21901;SDS011;11115;46.038;14.612;2023-03-18T13:47:02;2.20;;;1.17;;
21901;SDS011;11115;46.038;14.612;2023-03-18T13:49:38;2.30;;;1.30;;
21901;SDS011;11115;46.038;14.612;2023-03-18T13:52:41;2.17;;;0.90;;
21901;SDS011;11115;46.038;14.612;2023-03-18T13:58:07;1.45;;;1.13;;
21901;SDS011;11115;46.038;14.612;2023-03-18T14:04:27;3.85;;;1.00;;
21901;SDS011;11115;46.038;14.612;2023-03-18T14:07:21;1.90;;;1.50;;
21901;SDS011;11115;46.038;14.612;2023-03-18T14:12:46;2.20;;;1.00;;
21901;SDS011;11115;46.038;14.612;2023-03-18T14:18:17;10.95;;;1.77;;
21901;SDS011;11115;46.038;14.612;2023-03-18T14:20:54;11.50;;;1.83;;
21901;SDS011;11115;46.038;14.612;2023-03-18T14:23:42;2.00;;;0.98;;
21901;SDS011;11115;46.038;14.612;2023-03-18T14:26:26;1.80;;;0.88;;
21901;SDS011;11115;46.038;14.612;2023-03-18T14:29:43;6.97;;;1.30;;
21901;SDS011;11115;46.038;14.612;2023-03-18T14:38:03;2.40;;;1.52;;
21901;SDS011;11115;46.038;14.612;2023-03-18T14:40:45;4.70;;;1.80;;
21901;SDS011;11115;46.038;14.612;2023-03-18T14:43:35;2.08;;;1.05;;
21901;SDS011;11115;46.038;14.612;2023-03-18T14:46:15;3.88;;;0.98;;
21901;SDS011;11115;46.038;14.612;2023-03-18T14:48:51;2.92;;;1.35;;
21901;SDS011;11115;46.038;14.612;2023-03-18T14:51:25;6.55;;;1.65;;
21901;SDS011;11115;46.038;14.612;2023-03-18T14:54:02;3.95;;;2.00;;
21901;SDS011;11115;46.038;14.612;2023-03-18T14:56:39;5.40;;;1.70;;
21901;SDS011;11115;46.038;14.612;2023-03-18T14:59:15;2.60;;;1.08;;
21901;SDS011;11115;46.038;14.612;2023-03-18T15:01:46;2.83;;;1.00;;
21901;SDS011;11115;46.038;14.612;2023-03-18T15:04:25;3.47;;;1.20;;
21901;SDS011;11115;46.038;14.612;2023-03-18T15:07:16;1.65;;;0.90;;
21901;SDS011;11115;46.038;14.612;2023-03-18T15:09:55;2.22;;;1.25;;
21901;SDS011;11115;46.038;14.612;2023-03-18T15:12:28;4.93;;;1.27;;
21901;SDS011;11115;46.038;14.612;2023-03-18T15:15:03;2.38;;;1.40;;
21901;SDS011;11115;46.038;14.612;2023-03-18T15:17:39;1.50;;;1.15;;
21901;SDS011;11115;46.038;14.612;2023-03-18T15:20:23;2.35;;;1.25;;
21901;SDS011;11115;46.038;14.612;2023-03-18T15:23:07;3.95;;;1.40;;
21901;SDS011;11115;46.038;14.612;2023-03-18T15:25:40;2.40;;;1.10;;
21901;SDS011;11115;46.038;14.612;2023-03-18T15:28:20;4.05;;;1.35;;
21901;SDS011;11115;46.038;14.612;2023-03-18T15:30:53;8.20;;;1.88;;
21901;SDS011;11115;46.038;14.612;2023-03-18T15:33:35;3.20;;;1.25;;
21901;SDS011;11115;46.038;14.612;2023-03-18T15:36:10;2.35;;;1.17;;
21901;SDS011;11115;46.038;14.612;2023-03-18T15:38:48;3.03;;;1.23;;
21901;SDS011;11115;46.038;14.612;2023-03-18T15:41:21;1.58;;;1.05;;
21901;SDS011;11115;46.038;14.612;2023-03-18T15:43:53;6.57;;;0.95;;
21901;SDS011;11115;46.038;14.612;2023-03-18T15:46:33;1.88;;;1.20;;
21901;SDS011;11115;46.038;14.612;2023-03-18T15:49:04;3.53;;;1.47;;
21901;SDS011;11115;46.038;14.612;2023-03-18T15:51:44;3.65;;;1.17;;
21901;SDS011;11115;46.038;14.612;2023-03-18T15:54:44;3.17;;;1.10;;
21901;SDS011;11115;46.038;14.612;2023-03-18T15:57:37;1.55;;;1.00;;
21901;SDS011;11115;46.038;14.612;2023-03-18T16:00:09;4.50;;;1.40;;
21901;SDS011;11115;46.038;14.612;2023-03-18T16:02:38;4.25;;;1.13;;
21901;SDS011;11115;46.038;14.612;2023-03-18T16:05:16;2.45;;;0.98;;
21901;SDS011;11115;46.038;14.612;2023-03-18T16:08:07;4.28;;;1.67;;
21901;SDS011;11115;46.038;14.612;2023-03-18T16:10:41;2.63;;;1.00;;
21901;SDS011;11115;46.038;14.612;2023-03-18T16:13:25;3.75;;;1.42;;
21901;SDS011;11115;46.038;14.612;2023-03-18T16:15:58;3.42;;;1.35;;
21901;SDS011;11115;46.038;14.612;2023-03-18T16:18:36;2.58;;;1.10;;
21901;SDS011;11115;46.038;14.612;2023-03-18T16:21:15;4.63;;;1.17;;
21901;SDS011;11115;46.038;14.612;2023-03-18T16:23:47;3.67;;;0.95;;
21901;SDS011;11115;46.038;14.612;2023-03-18T16:26:18;4.20;;;0.82;;
21901;SDS011;11115;46.038;14.612;2023-03-18T16:28:52;3.45;;;1.42;;
21901;SDS011;11115;46.038;14.612;2023-03-18T16:31:26;3.95;;;1.25;;
21901;SDS011;11115;46.038;14.612;2023-03-18T16:33:58;12.65;;;2.50;;
21901;SDS011;11115;46.038;14.612;2023-03-18T16:36:31;2.95;;;1.65;;
21901;SDS011;11115;46.038;14.612;2023-03-18T16:39:32;3.60;;;1.13;;
21901;SDS011;11115;46.038;14.612;2023-03-18T16:42:17;1.98;;;0.88;;
21901;SDS011;11115;46.038;14.612;2023-03-18T16:44:55;7.63;;;1.73;;
21901;SDS011;11115;46.038;14.612;2023-03-18T16:47:32;6.60;;;1.95;;
21901;SDS011;11115;46.038;14.612;2023-03-18T16:50:23;5.05;;;2.15;;
21901;SDS011;11115;46.038;14.612;2023-03-18T16:52:59;1.95;;;0.57;;
21901;SDS011;11115;46.038;14.612;2023-03-18T16:55:37;2.03;;;1.20;;
21901;SDS011;11115;46.038;14.612;2023-03-18T16:58:07;3.00;;;1.70;;
21901;SDS011;11115;46.038;14.612;2023-03-18T17:00:39;3.00;;;1.17;;
21901;SDS011;11115;46.038;14.612;2023-03-18T17:03:18;3.37;;;1.23;;
21901;SDS011;11115;46.038;14.612;2023-03-18T17:05:55;4.17;;;1.47;;
21901;SDS011;11115;46.038;14.612;2023-03-18T17:08:42;3.23;;;1.43;;
21901;SDS011;11115;46.038;14.612;2023-03-18T17:11:21;2.93;;;1.40;;
21901;SDS011;11115;46.038;14.612;2023-03-18T17:13:59;17.37;;;5.23;;
21901;SDS011;11115;46.038;14.612;2023-03-18T17:16:34;28.17;;;6.37;;
21901;SDS011;11115;46.038;14.612;2023-03-18T17:19:01;22.10;;;7.17;;
21901;SDS011;11115;46.038;14.612;2023-03-18T17:21:39;9.27;;;3.63;;
21901;SDS011;11115;46.038;14.612;2023-03-18T17:24:10;45.53;;;12.00;;
21901;SDS011;11115;46.038;14.612;2023-03-18T17:26:40;58.40;;;15.60;;
21901;SDS011;11115;46.038;14.612;2023-03-18T17:29:25;18.92;;;5.95;;
21901;SDS011;11115;46.038;14.612;2023-03-18T17:32:07;42.50;;;10.07;;
21901;SDS011;11115;46.038;14.612;2023-03-18T17:34:39;134.63;;;29.03;;
21901;SDS011;11115;46.038;14.612;2023-03-18T17:37:10;51.53;;;13.20;;
21901;SDS011;11115;46.038;14.612;2023-03-18T17:39:52;47.37;;;11.03;;
21901;SDS011;11115;46.038;14.612;2023-03-18T17:42:33;19.13;;;6.10;;
21901;SDS011;11115;46.038;14.612;2023-03-18T17:45:29;14.30;;;4.10;;
21901;SDS011;11115;46.038;14.612;2023-03-18T17:48:30;11.83;;;4.27;;
21901;SDS011;11115;46.038;14.612;2023-03-18T17:51:01;9.43;;;3.60;;